Time;durP1;ratioP1;P1;durP2;ratioP2;P2;SDS_P1;SDS_P2;PMS_P1;PMS_P2;Temp;Humidity;BMP_temperature;BMP_pressure;BME280_temperature;BME280_humidity;BME280_pressure;Samples;Min_cycle;Max_cycle;Signal;HPM_P1;HPM_P2
2024/04/20 00:02:28;;;;;;;2.60;2.33;;;6.40;99.90;;;-141.84;100.00;119224.81;5445680;26;20288;-68
2024/04/20 00:04:58;;;;;;;2.93;2.10;;;6.40;99.90;;;-141.84;100.00;119224.81;5461822;26;20272;-68
2024/04/20 00:07:29;;;;;;;2.20;2.00;;;6.40;99.90;;;-141.84;100.00;119224.81;5446803;26;20818;-69
2024/04/20 00:09:59;;;;;;;3.20;2.33;;;6.40;99.90;;;-141.84;100.00;118956.03;5447843;26;20246;-69
2024/04/20 00:12:29;;;;;;;3.20;2.30;;;6.40;99.90;;;-141.84;100.00;118956.03;5448338;26;20339;-69
2024/04/20 00:15:03;;;;;;;2.80;2.30;;;6.40;99.90;;;-141.84;100.00;118956.03;5433290;26;20305;-68
2024/04/20 00:17:33;;;;;;;4.50;2.37;;;6.40;99.90;;;-141.84;100.00;118956.03;5447486;26;20222;-68
2024/04/20 00:20:07;;;;;;;2.50;2.30;;;6.40;99.90;;;-141.84;100.00;119222.75;5412310;26;20799;-70
2024/04/20 00:22:38;;;;;;;2.60;2.40;;;6.40;99.90;;;-141.84;100.00;118156.06;5438594;26;20284;-69
2024/04/20 00:25:09;;;;;;;2.40;2.20;;;6.40;99.90;;;-141.84;100.00;118689.38;5431984;26;20294;-68
2024/04/20 00:27:39;;;;;;;2.60;2.40;;;6.30;99.90;;;-141.84;100.00;119222.75;5413247;26;20254;-69
2024/04/20 00:30:12;;;;;;;2.73;2.53;;;6.30;99.90;;;-141.84;100.00;117622.84;5426721;26;20246;-69
2024/04/20 00:32:44;;;;;;;3.20;2.80;;;6.40;99.90;;;-141.84;100.00;117889.44;5428815;26;20270;-70
2024/04/20 00:35:17;;;;;;;3.37;2.87;;;6.40;99.90;;;-141.84;100.00;119222.75;5423275;26;20308;-69
2024/04/20 00:37:47;;;;;;;3.20;2.90;;;6.40;99.90;;;-141.84;100.00;119224.81;5441244;26;20745;-70
2024/04/20 00:40:18;;;;;;;3.10;2.80;;;6.40;99.90;;;-141.84;100.00;119224.81;5416855;26;20253;-69
2024/04/20 00:42:48;;;;;;;3.27;2.90;;;6.40;99.90;;;-141.84;100.00;119224.81;5435115;26;20270;-70
2024/04/20 00:45:21;;;;;;;3.50;3.20;;;6.40;99.90;;;-141.84;100.00;119224.81;5428527;26;20486;-70
2024/04/20 00:47:52;;;;;;;3.23;2.73;;;6.40;99.90;;;-141.84;100.00;119224.81;5432224;26;20257;-67
2024/04/20 00:50:25;;;;;;;3.33;3.00;;;6.40;99.90;;;-141.84;100.00;119224.81;5432938;26;20278;-70
2024/04/20 00:52:56;;;;;;;3.10;2.60;;;6.40;99.90;;;-141.84;100.00;119224.81;5427568;26;20238;-70
2024/04/20 00:55:27;;;;;;;3.50;3.20;;;6.40;99.90;;;-141.84;100.00;119224.81;5423680;26;20785;-71
2024/04/20 00:58:00;;;;;;;3.60;3.30;;;6.40;99.90;;;-141.84;100.00;119224.81;5423521;26;20281;-70
2024/04/20 01:00:35;;;;;;;4.33;3.30;;;6.40;99.90;;;-141.84;100.00;119224.81;5434535;26;20292;-70
2024/04/20 01:03:06;;;;;;;3.30;3.00;;;6.50;99.90;;;-141.84;100.00;119224.81;5433196;26;20330;-70
2024/04/20 01:05:37;;;;;;;3.50;3.20;;;6.40;99.90;;;-141.84;100.00;119224.81;5442807;26;20297;-69
2024/04/20 01:08:08;;;;;;;3.60;3.30;;;6.40;99.90;;;-141.84;100.00;119224.81;5429567;26;20803;-70
2024/04/20 01:10:39;;;;;;;3.80;3.50;;;6.40;99.90;;;-141.84;100.00;119224.81;5433930;26;20597;-70
2024/04/20 01:13:10;;;;;;;4.03;3.70;;;6.40;99.90;;;-141.84;100.00;119224.81;5440964;26;20277;-69
2024/04/20 01:15:43;;;;;;;3.90;3.60;;;6.40;99.90;;;-141.84;100.00;119224.81;5445012;26;20253;-69
2024/04/20 01:18:14;;;;;;;3.90;3.60;;;6.40;99.90;;;-141.84;100.00;119224.81;5430974;26;20643;-69
2024/04/20 01:20:45;;;;;;;4.10;3.70;;;6.40;99.90;;;-141.84;100.00;119224.81;5427547;26;20325;-69
2024/04/20 01:23:16;;;;;;;4.20;3.80;;;6.40;99.90;;;-141.84;100.00;119224.81;5418258;26;20231;-70
2024/04/20 01:25:51;;;;;;;3.97;3.63;;;6.30;99.90;;;-141.84;100.00;119224.81;5434136;26;20349;-70
2024/04/20 01:28:21;;;;;;;4.27;3.77;;;6.30;99.90;;;-141.84;100.00;119224.81;5424578;26;20262;-70
2024/04/20 01:30:51;;;;;;;4.60;4.20;;;6.40;99.90;;;-141.84;100.00;119224.81;5427946;26;20255;-70
2024/04/20 01:33:21;;;;;;;5.33;4.47;;;6.40;99.90;;;-141.84;100.00;119224.81;5429367;26;20265;-70
2024/04/20 01:35:52;;;;;;;4.47;4.07;;;6.50;99.90;;;-141.84;100.00;119224.81;5417316;26;20294;-70
2024/04/20 01:38:25;;;;;;;5.80;4.80;;;6.50;99.90;;;-141.84;100.00;119224.81;5434505;26;20327;-70
2024/04/20 01:40:58;;;;;;;6.73;5.37;;;6.50;99.90;;;-141.84;100.00;119224.81;5433536;26;20321;-70
2024/04/20 01:43:28;;;;;;;6.40;5.27;;;6.70;99.90;;;-141.84;100.00;119224.81;5427641;26;20328;-70
2024/04/20 01:45:59;;;;;;;6.47;5.87;;;6.60;99.90;;;-141.84;100.00;119224.81;5430390;26;20255;-70
2024/04/20 01:48:29;;;;;;;6.70;5.60;;;6.60;99.90;;;-141.84;100.00;119224.81;5448202;26;20627;-70
2024/04/20 01:51:02;;;;;;;5.90;5.27;;;6.70;99.90;;;-141.84;100.00;119224.81;5434867;26;20257;-70
2024/04/20 01:53:32;;;;;;;6.23;5.63;;;6.70;99.90;;;-141.84;100.00;119224.81;5434028;26;20222;-69
2024/04/20 01:56:07;;;;;;;5.80;5.20;;;6.70;99.90;;;-141.84;100.00;119224.81;5346887;26;20348;-69
2024/04/20 01:58:38;;;;;;;5.20;4.70;;;6.70;99.90;;;-141.84;100.00;119224.81;5421731;26;20255;-69
2024/04/20 02:01:08;;;;;;;5.20;4.70;;;6.70;99.90;;;-141.84;100.00;119224.81;5432321;26;20246;-69
2024/04/20 02:03:40;;;;;;;4.93;4.43;;;6.70;99.90;;;-141.84;100.00;119224.81;5439756;26;20336;-71
2024/04/20 02:06:11;;;;;;;7.63;3.90;;;6.70;99.90;;;-141.84;100.00;119222.75;5425958;26;20770;-69
2024/04/20 02:08:45;;;;;;;4.10;3.20;;;6.80;99.90;;;-141.84;100.00;117622.84;5433620;26;20226;-69
2024/04/20 02:11:19;;;;;;;2.83;2.63;;;6.80;99.90;;;-141.84;100.00;118422.72;5423262;26;20326;-69
2024/04/20 02:13:49;;;;;;;3.87;3.33;;;6.70;99.90;;;-141.84;100.00;119222.75;5430396;26;20359;-69
2024/04/20 02:16:19;;;;;;;4.07;2.33;;;6.70;99.90;;;-141.84;100.00;117356.25;5435999;26;20329;-69
2024/04/20 02:18:49;;;;;;;3.20;2.07;;;6.70;99.90;;;-141.84;100.00;114957.72;5439709;26;20254;-69
2024/04/20 02:21:23;;;;;;;2.13;2.00;;;6.60;99.90;;;-141.84;100.00;116823.13;5440089;26;20846;-69
2024/04/20 02:23:53;;;;;;;2.80;2.10;;;6.60;99.90;;;-141.84;100.00;116023.56;5419121;26;20432;-69
2024/04/20 02:26:26;;;;;;;2.10;2.00;;;6.60;99.90;;;-141.84;100.00;113892.16;5415113;26;20642;-69
2024/04/20 02:29:01;;;;;;;2.00;1.90;;;6.60;99.90;;;-141.84;100.00;113359.50;5414580;26;20231;-69
2024/04/20 02:31:32;;;;;;;1.80;1.70;;;6.60;99.90;;;-141.84;100.00;112826.88;5414247;26;20279;-69
2024/04/20 02:34:00;;;;;;;1.40;1.30;;;6.60;99.90;;;-141.84;100.00;113359.50;5413755;26;20255;-69
2024/04/20 02:36:30;;;;;;;2.07;1.43;;;6.50;99.90;;;-141.84;100.00;112826.88;5414547;26;20289;-69
2024/04/20 02:39:01;;;;;;;1.53;1.30;;;6.50;99.90;;;-141.84;100.00;114691.31;5414650;26;20255;-59
2024/04/20 02:41:34;;;;;;;1.37;1.27;;;6.40;99.90;;;-141.84;100.00;115757.06;5415636;26;20242;-60
2024/04/20 02:44:07;;;;;;;1.43;1.20;;;6.50;99.90;;;-141.84;100.00;116556.59;5414325;26;20593;-59
2024/04/20 02:46:38;;;;;;;1.40;1.30;;;6.50;99.90;;;-141.84;100.00;113359.50;5414174;26;20294;-60
2024/04/20 02:49:08;;;;;;;1.83;1.20;;;6.40;99.90;;;-141.84;100.00;114691.31;5413950;26;20255;-59
2024/04/20 02:51:39;;;;;;;1.37;1.27;;;6.40;99.90;;;-141.84;100.00;115757.06;5413935;26;20289;-59
2024/04/20 02:54:09;;;;;;;2.53;1.30;;;6.40;99.90;;;-141.84;100.00;115224.16;5413362;26;20912;-60
2024/04/20 02:56:42;;;;;;;1.30;1.20;;;6.40;99.90;;;-141.84;100.00;115224.16;5413206;26;20239;-60
2024/04/20 02:59:13;;;;;;;1.30;1.20;;;6.30;99.90;;;-141.84;100.00;113359.50;5410738;26;20265;-60
2024/04/20 03:01:43;;;;;;;1.87;1.10;;;6.30;99.90;;;-141.84;100.00;113093.19;5413732;26;20262;-59
2024/04/20 03:04:13;;;;;;;1.03;0.80;;;6.30;99.90;;;-141.84;99.21;108568.56;5415157;26;20328;-59
2024/04/20 03:06:44;;;;;;;0.80;0.80;;;6.30;99.90;;;-141.84;100.00;109100.59;5420924;26;20258;-59
2024/04/20 03:09:14;;;;;;;0.73;0.73;;;6.20;99.90;;;-141.84;100.00;112294.34;5413636;26;20254;-59
2024/04/20 03:11:50;;;;;;;0.80;0.80;;;6.10;99.90;;;-141.84;100.00;115224.16;5412929;26;20227;-59
2024/04/20 03:14:20;;;;;;;1.00;1.00;;;6.10;99.90;;;-141.84;100.00;112826.88;5408948;26;20230;-59
2024/04/20 03:16:50;;;;;;;1.03;0.70;;;6.20;99.90;;;-141.84;98.83;106972.81;5411568;26;20301;-60
2024/04/20 03:19:21;;;;;;;0.60;0.60;;;6.10;99.90;;;-141.84;99.69;108036.56;5413362;26;20251;-59
2024/04/20 03:21:51;;;;;;;1.10;0.70;;;6.00;99.90;;;-141.84;100.00;110963.31;5415878;26;20305;-59
2024/04/20 03:24:21;;;;;;;0.70;0.70;;;6.00;99.90;;;-141.84;100.00;111229.50;5418030;26;20258;-59
2024/04/20 03:26:51;;;;;;;1.67;0.80;;;6.00;99.90;;;-141.84;100.00;110963.31;5420458;26;20296;-59
2024/04/20 03:29:22;;;;;;;0.80;0.80;;;5.90;99.90;;;-141.84;99.66;108568.56;5417978;26;20239;-59
2024/04/20 03:31:52;;;;;;;1.10;1.00;;;5.90;99.90;;;-141.84;100.00;109632.72;5433536;26;20257;-59
2024/04/20 03:34:23;;;;;;;0.93;0.93;;;5.90;99.90;;;-141.84;100.00;110963.31;5419634;26;20304;-59
2024/04/20 03:36:54;;;;;;;1.10;1.00;;;5.90;99.90;;;-141.84;100.00;112028.13;5415802;26;20266;-60
2024/04/20 03:39:26;;;;;;;1.20;1.00;;;5.80;99.90;;;-141.84;100.00;112294.34;5432648;26;20254;-59
2024/04/20 03:41:59;;;;;;;1.87;1.17;;;5.90;99.90;;;-141.84;100.00;112826.88;5438348;26;20248;-60
2024/04/20 03:44:29;;;;;;;1.40;1.30;;;5.80;99.90;;;-141.84;100.00;112028.13;5425416;26;20892;-61
2024/04/20 03:46:59;;;;;;;1.20;1.10;;;5.80;99.90;;;-141.84;100.00;110963.31;5424854;26;20238;-60
2024/04/20 03:49:31;;;;;;;1.30;1.20;;;5.80;99.90;;;-141.84;100.00;111495.69;5420678;26;20270;-60
2024/04/20 03:52:01;;;;;;;1.30;1.20;;;5.80;99.90;;;-141.84;99.12;108568.56;5438414;26;20292;-59
2024/04/20 03:54:31;;;;;;;1.30;1.20;;;5.80;99.90;;;-141.84;99.45;108036.56;5429339;26;20256;-59
2024/04/20 03:57:04;;;;;;;1.87;1.00;;;5.80;99.90;;;-141.84;99.11;107504.66;5431931;26;20254;-59
2024/04/20 03:59:35;;;;;;;1.20;1.00;;;5.70;99.90;;;-141.84;99.48;108302.56;5417433;26;20330;-60
2024/04/20 04:02:05;;;;;;;2.37;1.20;;;5.70;99.90;;;-141.84;100.00;109632.72;5441657;26;20237;-60
2024/04/20 04:04:36;;;;;;;1.43;1.10;;;5.70;99.90;;;-141.84;99.30;108834.56;5417218;26;20253;-61
2024/04/20 04:07:06;;;;;;;1.63;1.40;;;5.70;99.90;;;-141.84;99.93;109632.72;5417125;26;20317;-61
2024/04/20 04:09:38;;;;;;;1.20;1.10;;;5.70;99.90;;;-141.84;99.02;107238.72;5445667;26;20278;-60
2024/04/20 04:12:11;;;;;;;1.30;1.20;;;5.60;99.90;;;-141.84;98.81;106706.94;5432096;26;20687;-60
2024/04/20 04:14:42;;;;;;;1.20;1.10;;;5.60;99.90;;;-141.84;99.09;107770.63;5419680;26;20226;-59
2024/04/20 04:17:12;;;;;;;1.10;1.00;;;5.50;99.90;;;-141.84;100.00;109632.72;5427081;26;20276;-59
2024/04/20 04:19:43;;;;;;;1.20;1.10;;;5.50;99.90;;;-141.84;99.54;108036.56;5432700;26;20257;-60
2024/04/20 04:22:14;;;;;;;1.37;1.27;;;5.60;99.90;;;-141.84;100.00;110963.31;5433111;26;20293;-61
2024/04/20 04:24:44;;;;;;;1.40;1.30;;;5.50;99.90;;;-141.84;99.95;109632.72;5431239;26;20365;-60
2024/04/20 04:27:18;;;;;;;1.30;1.20;;;5.50;99.90;;;-141.84;99.18;107504.66;5415972;26;20252;-60
2024/04/20 04:29:48;;;;;;;1.40;1.30;;;5.50;99.90;;;-141.84;99.01;106972.81;5420002;26;20264;-60
2024/04/20 04:32:19;;;;;;;1.40;1.30;;;5.50;99.90;;;-141.84;100.00;109898.81;5432124;26;20565;-60
2024/04/20 04:34:49;;;;;;;2.07;1.53;;;5.50;99.90;;;-141.84;100.00;110963.31;5436573;26;20284;-61
2024/04/20 04:37:20;;;;;;;1.40;1.30;;;5.50;99.90;;;-141.84;100.00;110431.03;5420336;26;21226;-60
2024/04/20 04:39:51;;;;;;;1.40;1.30;;;5.40;99.90;;;-141.84;100.00;113359.50;5433130;26;20292;-60
2024/04/20 04:42:26;;;;;;;1.10;1.00;;;5.30;99.90;;;-141.84;100.00;110697.16;5432029;26;20265;-60
2024/04/20 04:45:01;;;;;;;1.10;1.00;;;5.40;99.90;;;-141.84;100.00;109366.66;5431665;26;20250;-61
2024/04/20 04:47:31;;;;;;;1.10;1.00;;;5.30;99.90;;;-141.84;99.02;107238.72;5402692;26;20226;-62
2024/04/20 04:50:02;;;;;;;2.07;1.20;;;5.40;99.90;;;-141.84;98.82;106441.06;5432774;26;20271;-61
2024/04/20 04:52:33;;;;;;;1.53;1.43;;;5.40;99.90;;;-141.84;97.75;104846.16;5428617;26;20255;-59
2024/04/20 04:55:06;;;;;;;1.60;1.23;;;5.40;99.90;;;-141.84;97.46;104048.94;5429572;26;20366;-60
2024/04/20 04:57:39;;;;;;;1.70;1.33;;;5.40;99.90;;;-141.84;98.73;107238.72;5441737;26;20285;-60
2024/04/20 05:00:11;;;;;;;1.57;1.47;;;5.40;99.90;;;-141.84;98.10;105643.53;5431063;26;20254;-60
2024/04/20 05:02:41;;;;;;;1.30;1.20;;;5.40;99.90;;;-141.84;97.10;102986.25;5431614;26;20349;-59
2024/04/20 05:05:12;;;;;;;1.53;1.43;;;5.40;99.90;;;-141.84;96.24;101923.81;5420033;26;20282;-61
2024/04/20 05:07:45;;;;;;;1.40;1.30;;;5.30;99.90;;;-141.84;96.84;102986.25;5436167;26;20249;-60
2024/04/20 05:10:15;;;;;;;1.40;1.30;;;5.40;99.90;;;-141.84;97.35;103251.88;5424154;26;20362;-60
2024/04/20 05:12:48;;;;;;;1.30;1.20;;;5.40;99.90;;;-141.84;96.34;102720.59;5435110;26;20296;-60
2024/04/20 05:15:19;;;;;;;1.40;1.30;;;5.40;99.90;;;-141.84;95.08;99799.78;5436257;26;20261;-60
2024/04/20 05:17:49;;;;;;;1.40;1.30;;;5.40;99.90;;;-141.84;93.08;93169.38;5415925;26;20367;-60
2024/04/20 05:20:21;;;;;;;1.43;1.33;;;5.40;99.90;;;-141.84;92.41;91844.63;5432046;26;20278;-60
2024/04/20 05:22:51;;;;;;;1.50;1.27;;;5.50;99.90;;;-141.84;90.79;87343.63;5417230;26;20253;-60
2024/04/20 05:25:21;;;;;;;1.40;1.10;;;5.50;99.90;;;-141.84;89.43;80469.50;5441376;26;20357;-60
2024/04/20 05:27:54;;;;;;;1.23;1.13;;;5.50;99.90;;;-141.84;89.73;80733.66;5451319;26;20253;-60
2024/04/20 05:30:25;;;;;;;1.23;1.10;;;5.50;99.90;;;-141.84;88.58;76245.09;5450764;26;20261;-60
2024/04/20 05:32:56;;;;;;;2.20;1.10;;;5.50;99.90;;;-141.84;90.96;85756.25;5451492;26;20296;-60
2024/04/20 05:35:26;;;;;;;1.97;1.10;;;5.60;99.90;;;-141.84;89.07;79941.19;5451365;26;20673;-59
2024/04/20 05:37:58;;;;;;;1.27;1.17;;;5.60;99.90;;;-141.84;85.26;61231.81;5451604;26;20274;-60
2024/04/20 05:40:29;;;;;;;1.97;1.43;;;5.60;99.90;;;-141.84;84.67;56765.13;5451261;26;20296;-59
2024/04/20 05:43:02;;;;;;;1.50;1.30;;;5.60;99.90;;;-141.84;83.96;52041.16;5452132;26;20253;-60
2024/04/20 05:45:32;;;;;;;2.33;1.50;;;5.70;99.90;;;-141.84;83.66;52303.44;5451193;26;20252;-60
2024/04/20 05:48:04;;;;;;;1.40;1.20;;;5.70;99.90;;;-141.84;82.48;44442.13;5450548;26;20796;-60
2024/04/20 05:50:35;;;;;;;1.07;0.97;;;5.70;99.90;;;-141.84;81.50;33336.16;5451146;26;20228;-61
2024/04/20 05:53:06;;;;;;;1.17;1.07;;;5.80;99.90;;;-141.84;82.95;45489.41;5451543;26;20330;-59
2024/04/20 05:55:37;;;;;;;1.70;1.40;;;5.80;99.90;;;-141.84;82.60;42871.75;5450817;26;20271;-60
2024/04/20 05:58:11;;;;;;;1.20;1.10;;;5.90;99.90;;;-141.84;81.85;37782.56;5447423;26;20309;-59
2024/04/20 06:00:42;;;;;;;1.63;1.27;;;5.90;99.90;;;-141.84;79.68;24873.63;5450575;26;20360;-59
2024/04/20 06:03:12;;;;;;;1.30;1.20;;;6.00;99.90;;;-141.84;80.55;27481.34;5450775;26;20256;-60
2024/04/20 06:05:46;;;;;;;1.67;1.27;;;5.90;99.90;;;-141.84;80.37;28247.06;5446988;26;20237;-58
2024/04/20 06:08:17;;;;;;;1.20;1.10;;;5.90;99.90;;;-141.84;79.08;22904.25;5452091;26;20279;-59
2024/04/20 06:10:56;;;;;;;1.37;1.27;;;5.90;99.90;;;-141.84;80.30;27298.06;5451657;26;20292;-59
2024/04/20 06:13:30;;;;;;;1.50;1.20;;;5.90;99.90;;;-141.84;79.54;24419.84;5451346;26;20257;-60
2024/04/20 06:16:01;;;;;;;1.17;1.10;;;5.90;99.90;;;-141.84;78.52;21606.78;5447652;26;20261;-59
2024/04/20 06:18:31;;;;;;;1.20;1.10;;;6.00;99.90;;;-141.84;77.22;19799.63;5450561;26;20795;-59
2024/04/20 06:21:01;;;;;;;1.73;1.00;;;6.00;99.90;;;-141.84;76.37;19450.06;5452405;26;20577;-59
2024/04/20 06:23:31;;;;;;;1.10;1.00;;;6.00;99.90;;;-141.84;73.93;18893.28;5451946;26;20316;-60
2024/04/20 06:26:01;;;;;;;0.80;0.80;;;6.00;99.90;;;-141.84;71.77;18763.25;5451707;26;20236;-59
2024/04/20 06:28:34;;;;;;;0.90;0.90;;;6.10;99.90;;;-141.84;70.22;18781.53;5438415;26;20272;-59
2024/04/20 06:31:05;;;;;;;0.80;0.80;;;6.10;99.90;;;-141.84;69.35;18793.72;5450878;26;20252;-60
2024/04/20 06:33:37;;;;;;;0.90;0.90;;;6.20;99.90;;;-141.84;67.57;18816.06;5435643;26;20301;-60
2024/04/20 06:36:08;;;;;;;1.17;0.80;;;6.30;99.90;;;-141.84;66.47;18812.00;5441525;26;20321;-59
2024/04/20 06:38:39;;;;;;;0.67;0.67;;;6.40;99.90;;;-141.84;64.53;18858.75;5449931;26;20233;-59
2024/04/20 06:41:09;;;;;;;0.90;0.77;;;6.40;99.90;;;-141.84;63.15;18848.59;5450923;26;20269;-60
2024/04/20 06:43:42;;;;;;;0.70;0.70;;;6.50;99.90;;;-141.84;63.35;18877.03;5451559;26;20288;-59
2024/04/20 06:46:12;;;;;;;0.97;0.80;;;6.40;99.90;;;-141.84;63.62;18848.59;5437471;26;20258;-58
2024/04/20 06:48:42;;;;;;;0.60;0.60;;;6.20;99.90;;;-141.84;63.99;18844.53;5450241;26;20261;-60
2024/04/20 06:51:12;;;;;;;0.87;0.80;;;6.10;99.90;;;-141.84;64.17;18840.47;5450566;26;20415;-60
2024/04/20 06:53:44;;;;;;;1.20;0.80;;;6.20;99.90;;;-141.84;63.42;18903.44;5450737;26;20252;-59
2024/04/20 06:56:16;;;;;;;1.00;0.90;;;6.40;99.90;;;-141.84;62.27;18907.50;5451797;26;20772;-60
2024/04/20 06:58:49;;;;;;;2.00;0.80;;;6.60;99.90;;;-141.84;61.06;18946.13;5450660;26;20350;-59
2024/04/20 07:01:19;;;;;;;1.47;1.00;;;6.80;99.90;;;-141.84;61.34;18948.16;5450281;26;20614;-59
2024/04/20 07:03:49;;;;;;;2.63;1.27;;;6.80;99.90;;;-141.84;60.77;18948.16;5449938;26;20275;-61
2024/04/20 07:06:20;;;;;;;1.23;1.13;;;6.90;99.90;;;-141.84;61.53;18946.13;5450248;26;20292;-59
2024/04/20 07:08:50;;;;;;;1.30;1.20;;;6.90;99.90;;;-141.84;61.98;18954.25;5451297;26;20250;-60
2024/04/20 07:11:20;;;;;;;1.80;1.50;;;6.90;99.90;;;-141.84;61.73;18944.09;5451487;26;20299;-59
2024/04/20 07:13:55;;;;;;;2.40;1.00;;;7.00;99.90;;;-141.84;61.15;18950.19;5449915;26;20265;-60
2024/04/20 07:16:26;;;;;;;1.60;1.27;;;7.00;99.90;;;-141.84;61.70;18925.81;5451159;26;20763;-59
2024/04/20 07:18:56;;;;;;;0.93;0.90;;;7.10;99.90;;;-141.84;61.80;18950.19;5451598;26;20578;-59
2024/04/20 07:21:26;;;;;;;1.43;1.30;;;7.10;99.90;;;-141.84;62.41;18938.00;5449790;26;20590;-62
2024/04/20 07:24:01;;;;;;;1.93;1.63;;;7.10;99.90;;;-141.84;63.53;18921.75;5448166;26;20266;-60
2024/04/20 07:26:31;;;;;;;1.90;1.70;;;7.00;99.90;;;-141.84;65.21;18933.94;5430001;26;20274;-60
2024/04/20 07:29:04;;;;;;;1.60;1.50;;;7.00;99.90;;;-141.84;65.37;18935.97;5418384;26;20222;-60
2024/04/20 07:31:35;;;;;;;2.00;1.80;;;7.00;99.90;;;-141.84;64.34;18968.47;5433995;26;20277;-59
2024/04/20 07:34:05;;;;;;;2.13;1.90;;;7.10;99.90;;;-141.84;64.06;18952.22;5341403;26;20734;-59
2024/04/20 07:36:35;;;;;;;1.70;1.60;;;7.10;99.90;;;-141.84;63.61;18972.53;5437146;26;20289;-59
2024/04/20 07:39:07;;;;;;;1.70;1.60;;;7.20;99.90;;;-141.84;63.49;18988.78;5433558;26;20292;-59
2024/04/20 07:41:37;;;;;;;2.77;1.70;;;7.30;99.90;;;-141.84;62.64;18980.66;5418610;26;20722;-58
2024/04/20 07:44:10;;;;;;;2.03;1.70;;;7.40;99.90;;;-141.84;62.04;18976.59;5400240;26;20231;-59
2024/04/20 07:46:40;;;;;;;2.00;1.80;;;7.30;99.90;;;-141.84;61.98;18964.41;5412998;26;20291;-58
2024/04/20 07:49:10;;;;;;;2.00;1.80;;;7.40;99.90;;;-141.84;62.25;18974.56;5413439;26;20251;-59
2024/04/20 07:51:42;;;;;;;2.43;1.87;;;7.50;99.90;;;-141.84;60.73;19007.06;5413817;26;20292;-59
2024/04/20 07:54:12;;;;;;;2.53;1.70;;;7.50;99.90;;;-141.84;59.71;19017.25;5413702;26;20284;-58
2024/04/20 07:56:44;;;;;;;2.00;1.47;;;7.70;99.90;;;-141.84;58.04;18996.91;5399700;26;20362;-64
2024/04/20 07:59:18;;;;;;;1.47;1.37;;;7.70;99.90;;;-141.84;58.44;19029.44;5414156;26;20347;-59
2024/04/20 08:01:45;;;;;;;1.93;1.70;;;7.70;99.90;;;-141.84;59.48;19033.50;5413004;26;20313;-60
2024/04/20 08:04:16;;;;;;;2.33;1.70;;;7.80;99.90;;;-141.84;57.17;19078.19;5413458;26;20671;-61
2024/04/20 08:06:46;;;;;;;1.70;1.60;;;8.10;99.90;;;-141.84;56.00;19070.06;5446403;26;20257;-59
2024/04/20 08:09:18;;;;;;;1.43;1.33;;;8.20;99.90;;;-141.84;55.09;19088.34;5413944;26;20362;-60
2024/04/20 08:11:48;;;;;;;2.00;1.30;;;8.30;99.90;;;-141.84;55.11;19066.00;5404135;26;20271;-58
2024/04/20 08:14:21;;;;;;;1.73;1.33;;;8.20;99.90;;;-141.84;55.26;19104.59;5413770;26;20632;-63
2024/04/20 08:16:51;;;;;;;3.57;1.50;;;8.20;99.90;;;-141.84;53.83;19057.88;5413070;26;20808;-59
2024/04/20 08:19:21;;;;;;;1.40;1.30;;;8.10;99.90;;;-141.84;54.33;19086.31;5412275;26;20352;-58
2024/04/20 08:21:51;;;;;;;2.07;1.30;;;7.90;99.90;;;-141.84;53.29;19055.84;5429492;26;20253;-60
2024/04/20 08:24:21;;;;;;;0.90;0.90;;;7.90;99.90;;;-141.84;52.23;19082.25;5417539;26;20258;-59
2024/04/20 08:26:51;;;;;;;1.10;1.00;;;7.90;99.90;;;-141.84;51.66;19098.50;5432476;26;20717;-59
2024/04/20 08:29:24;;;;;;;1.27;1.17;;;8.00;99.90;;;-141.84;51.82;19114.78;5433694;26;20231;-59
2024/04/20 08:31:55;;;;;;;1.20;1.10;;;8.10;99.90;;;-141.84;50.55;19133.06;5418086;26;20273;-59
2024/04/20 08:34:25;;;;;;;1.07;1.00;;;8.10;99.90;;;-141.84;50.07;19141.19;5435615;26;20254;-59
2024/04/20 08:36:55;;;;;;;1.20;1.10;;;8.30;99.90;;;-141.84;49.98;19187.91;5436870;26;20258;-70
2024/04/20 08:39:29;;;;;;;1.30;1.20;;;8.50;99.90;;;-141.84;49.14;19155.41;5436358;26;20315;-69
2024/04/20 08:42:06;;;;;;;1.50;1.00;;;8.70;99.90;;;-141.84;49.55;19179.78;5431632;26;20739;-69
2024/04/20 08:44:41;;;;;;;1.03;1.00;;;8.70;99.90;;;-141.84;48.83;19218.41;5417355;26;20587;-69
2024/04/20 08:47:12;;;;;;;1.20;1.10;;;9.00;99.90;;;-141.84;48.10;19214.34;5429292;26;20583;-69
2024/04/20 08:49:46;;;;;;;1.50;1.00;;;9.10;99.90;;;-141.84;47.62;19242.78;5415367;26;20251;-70
2024/04/20 08:52:20;;;;;;;1.37;1.00;;;9.20;99.90;;;-141.84;46.96;19212.31;5430989;26;20355;-69
2024/04/20 08:54:56;;;;;;;1.37;1.10;;;9.10;99.90;;;-141.84;47.81;19206.22;5432002;26;20611;-69
2024/04/20 08:57:29;;;;;;;1.17;0.97;;;9.00;99.90;;;-141.84;47.18;19216.38;5418463;26;20266;-68
2024/04/20 09:00:02;;;;;;;0.93;0.93;;;8.90;99.90;;;-141.84;45.95;19200.13;5432714;26;20305;-69
2024/04/20 09:02:39;;;;;;;1.47;1.20;;;8.80;99.90;;;-141.84;45.70;19198.09;5447020;26;20301;-66
2024/04/20 09:05:11;;;;;;;1.07;0.97;;;8.70;99.90;;;-141.84;45.98;19212.31;5427468;26;20263;-68
2024/04/20 09:07:41;;;;;;;3.03;1.10;;;8.80;99.90;;;-141.84;44.93;19289.53;5433642;26;20328;-68
2024/04/20 09:10:11;;;;;;;2.23;1.20;;;9.00;99.90;;;-141.84;45.12;19293.59;5419187;26;20293;-68
2024/04/20 09:12:42;;;;;;;1.57;1.30;;;9.30;99.90;;;-141.84;47.18;19267.16;5439073;26;20281;-69
2024/04/20 09:15:18;;;;;;;1.70;1.60;;;9.30;99.90;;;-141.84;50.10;19228.56;5437292;26;20262;-68
2024/04/20 09:17:50;;;;;;;1.50;1.40;;;9.20;99.90;;;-141.84;49.72;19244.81;5429893;26;20262;-67
2024/04/20 09:20:19;;;;;;;2.03;1.60;;;9.30;99.90;;;-141.84;49.76;19246.84;5419742;26;20296;-67
2024/04/20 09:22:49;;;;;;;3.93;1.40;;;9.30;99.90;;;-141.84;49.56;19242.78;5418890;26;20730;-69
2024/04/20 09:25:21;;;;;;;1.70;1.40;;;9.20;99.90;;;-141.84;48.30;19250.91;5424631;26;20289;-67
2024/04/20 09:27:55;;;;;;;1.57;1.47;;;9.30;99.90;;;-141.84;45.89;19309.84;5400138;26;20258;-69
2024/04/20 09:30:28;;;;;;;2.83;2.00;;;9.60;99.90;;;-141.84;45.21;19293.59;5429165;26;20317;-69
2024/04/20 09:33:00;;;;;;;1.63;1.50;;;9.80;99.90;;;-141.84;45.70;19295.63;5418696;26;20302;-69
2024/04/20 09:35:30;;;;;;;1.67;1.50;;;9.80;99.90;;;-141.84;46.53;19344.41;5409719;26;20254;-69
2024/04/20 09:38:03;;;;;;;3.33;1.47;;;9.80;99.90;;;-141.84;47.26;19281.41;5417260;26;20289;-68
2024/04/20 09:40:36;;;;;;;1.60;1.50;;;9.60;99.90;;;-141.84;47.22;19265.13;5414015;26;20261;-68
2024/04/20 09:43:08;;;;;;;1.50;1.40;;;9.40;99.90;;;-141.84;46.94;19293.59;5444547;26;20271;-69
2024/04/20 09:45:44;;;;;;;1.70;1.60;;;9.20;99.90;;;-141.84;47.96;19246.84;5417885;26;20343;-69
2024/04/20 09:48:17;;;;;;;1.80;1.70;;;9.20;99.90;;;-141.84;48.40;19234.66;5405761;26;20266;-69
2024/04/20 09:50:55;;;;;;;2.67;1.73;;;9.00;99.90;;;-141.84;49.31;19161.50;5424690;26;20596;-68
2024/04/20 09:53:36;;;;;;;1.87;1.63;;;8.70;99.90;;;-141.84;51.49;19145.25;5435185;26;20305;-70
2024/04/20 09:56:09;;;;;;;2.90;1.80;;;8.50;99.90;;;-141.84;50.81;19173.69;5437711;26;20238;-69
2024/04/20 09:58:42;;;;;;;2.20;1.40;;;8.40;99.90;;;-141.84;51.14;19163.53;5430641;26;20823;-70
2024/04/20 10:01:19;;;;;;;2.17;1.97;;;8.50;99.90;;;-141.84;48.41;19230.59;5431123;26;20254;-71
2024/04/20 10:03:53;;;;;;;2.10;1.83;;;8.60;99.90;;;-141.84;48.41;19222.47;5441225;26;20325;-69
2024/04/20 10:06:25;;;;;;;1.63;1.33;;;8.80;99.90;;;-141.84;45.47;19238.72;5414654;26;20584;-70
2024/04/20 10:08:58;;;;;;;1.20;1.10;;;8.90;99.90;;;-141.84;44.90;19267.16;5401605;26;20730;-70
2024/04/20 10:11:29;;;;;;;3.17;1.27;;;9.00;99.90;;;-141.84;45.33;19293.59;5429781;26;20262;-69
2024/04/20 10:14:02;;;;;;;1.30;1.20;;;9.20;99.90;;;-141.84;44.69;19364.72;5431169;26;20264;-69
2024/04/20 10:16:35;;;;;;;1.57;1.10;;;9.50;99.90;;;-141.84;42.64;19407.38;5430702;26;20255;-70
2024/04/20 10:19:07;;;;;;;3.07;1.00;;;9.90;99.90;;;-141.84;42.49;19393.16;5428762;26;20265;-69
2024/04/20 10:21:41;;;;;;;1.20;1.10;;;10.10;99.90;;;-141.84;43.55;19391.13;5407880;26;20256;-69
2024/04/20 10:24:12;;;;;;;1.50;1.40;;;10.10;99.90;;;-141.84;44.17;19360.66;5413887;26;20306;-69
2024/04/20 10:26:47;;;;;;;1.37;1.10;;;10.10;99.90;;;-141.84;44.90;19405.34;5432946;26;20235;-69